sensor_id;sensor_type;location;lat;lon;timestamp;pressure;altitude;pressure_sealevel;temperature;humidity
43681;BME280;29281;50.356;30.894;2023-03-18T00:01:03;101104.61;;;4.83;100.00
43681;BME280;29281;50.356;30.894;2023-03-18T00:02:05;101108.11;;;4.84;100.00
43681;BME280;29281;50.356;30.894;2023-03-18T00:03:09;101101.25;;;4.78;100.00
43681;BME280;29281;50.356;30.894;2023-03-18T00:04:12;101102.11;;;4.79;100.00
43681;BME280;29281;50.356;30.894;2023-03-18T00:05:16;101097.45;;;4.88;100.00
43681;BME280;29281;50.356;30.894;2023-03-18T00:06:20;101094.91;;;4.85;100.00
43681;BME280;29281;50.356;30.894;2023-03-18T00:07:23;101106.25;;;4.87;100.00
43681;BME280;29281;50.356;30.894;2023-03-18T00:08:28;101097.20;;;4.96;100.00
43681;BME280;29281;50.356;30.894;2023-03-18T00:09:32;101099.67;;;4.73;100.00
43681;BME280;29281;50.356;30.894;2023-03-18T00:10:35;101103.92;;;4.77;100.00
43681;BME280;29281;50.356;30.894;2023-03-18T00:11:39;101098.08;;;4.67;100.00
43681;BME280;29281;50.356;30.894;2023-03-18T00:12:43;101108.44;;;4.73;100.00
43681;BME280;29281;50.356;30.894;2023-03-18T00:13:47;101101.37;;;4.74;100.00
43681;BME280;29281;50.356;30.894;2023-03-18T00:14:51;101107.04;;;4.89;100.00
43681;BME280;29281;50.356;30.894;2023-03-18T00:15:54;101104.36;;;4.91;100.00
43681;BME280;29281;50.356;30.894;2023-03-18T00:16:58;101111.22;;;4.97;100.00
43681;BME280;29281;50.356;30.894;2023-03-18T00:18:03;101110.66;;;4.87;100.00
43681;BME280;29281;50.356;30.894;2023-03-18T00:19:07;101114.73;;;4.68;100.00
43681;BME280;29281;50.356;30.894;2023-03-18T00:20:12;101110.91;;;4.78;100.00
43681;BME280;29281;50.356;30.894;2023-03-18T00:21:16;101108.81;;;4.89;100.00
43681;BME280;29281;50.356;30.894;2023-03-18T00:22:19;101111.73;;;4.80;100.00
43681;BME280;29281;50.356;30.894;2023-03-18T00:23:24;101115.09;;;4.85;100.00
43681;BME280;29281;50.356;30.894;2023-03-18T00:24:28;101109.83;;;4.85;100.00
43681;BME280;29281;50.356;30.894;2023-03-18T00:25:31;101115.88;;;4.88;100.00
43681;BME280;29281;50.356;30.894;2023-03-18T00:26:35;101107.20;;;4.85;100.00
43681;BME280;29281;50.356;30.894;2023-03-18T00:27:40;101116.78;;;4.87;100.00
43681;BME280;29281;50.356;30.894;2023-03-18T00:28:45;101108.31;;;4.76;100.00
43681;BME280;29281;50.356;30.894;2023-03-18T00:29:48;101112.55;;;4.82;100.00
43681;BME280;29281;50.356;30.894;2023-03-18T00:31:00;101116.13;;;4.79;100.00
43681;BME280;29281;50.356;30.894;2023-03-18T00:32:00;101108.15;;;4.82;100.00
43681;BME280;29281;50.356;30.894;2023-03-18T00:33:04;101107.77;;;4.94;100.00
43681;BME280;29281;50.356;30.894;2023-03-18T00:34:10;101112.50;;;4.83;100.00
43681;BME280;29281;50.356;30.894;2023-03-18T00:35:15;101110.32;;;4.98;100.00
43681;BME280;29281;50.356;30.894;2023-03-18T00:36:20;101110.48;;;4.91;100.00
43681;BME280;29281;50.356;30.894;2023-03-18T00:37:26;101114.77;;;4.95;100.00
43681;BME280;29281;50.356;30.894;2023-03-18T00:38:34;101112.13;;;4.95;100.00
43681;BME280;29281;50.356;30.894;2023-03-18T00:39:38;101105.47;;;4.84;100.00
43681;BME280;29281;50.356;30.894;2023-03-18T00:40:47;101109.95;;;4.80;100.00
43681;BME280;29281;50.356;30.894;2023-03-18T00:41:58;101112.30;;;4.89;100.00
43681;BME280;29281;50.356;30.894;2023-03-18T00:43:06;101106.17;;;4.89;100.00
43681;BME280;29281;50.356;30.894;2023-03-18T00:44:09;101110.48;;;4.91;100.00
43681;BME280;29281;50.356;30.894;2023-03-18T00:45:15;101112.26;;;4.91;100.00
43681;BME280;29281;50.356;30.894;2023-03-18T00:46:26;101114.89;;;4.91;100.00
43681;BME280;29281;50.356;30.894;2023-03-18T00:47:32;101111.64;;;4.83;100.00
43681;BME280;29281;50.356;30.894;2023-03-18T00:48:35;101108.15;;;4.82;100.00
43681;BME280;29281;50.356;30.894;2023-03-18T00:49:40;101123.52;;;4.96;100.00
43681;BME280;29281;50.356;30.894;2023-03-18T00:50:43;101115.63;;;4.96;100.00
43681;BME280;29281;50.356;30.894;2023-03-18T00:51:49;101120.41;;;4.83;100.00
43681;BME280;29281;50.356;30.894;2023-03-18T00:52:53;101113.12;;;4.91;100.00
43681;BME280;29281;50.356;30.894;2023-03-18T00:53:58;101116.13;;;4.79;100.00
43681;BME280;29281;50.356;30.894;2023-03-18T00:55:02;101114.36;;;4.80;100.00
43681;BME280;29281;50.356;30.894;2023-03-18T00:56:05;101111.40;;;4.90;100.00
43681;BME280;29281;50.356;30.894;2023-03-18T00:57:08;101108.06;;;4.85;100.00
43681;BME280;29281;50.356;30.894;2023-03-18T00:58:13;101111.52;;;4.87;100.00
43681;BME280;29281;50.356;30.894;2023-03-18T00:59:15;101112.92;;;4.70;100.00
43681;BME280;29281;50.356;30.894;2023-03-18T01:00:19;101105.15;;;4.65;100.00
43681;BME280;29281;50.356;30.894;2023-03-18T01:01:25;101107.70;;;4.68;100.00
43681;BME280;29281;50.356;30.894;2023-03-18T01:02:29;101112.18;;;4.65;100.00
43681;BME280;29281;50.356;30.894;2023-03-18T01:03:33;101115.84;;;4.59;100.00
43681;BME280;29281;50.356;30.894;2023-03-18T01:04:37;101114.06;;;4.59;100.00
43681;BME280;29281;50.356;30.894;2023-03-18T01:05:42;101124.27;;;4.72;100.00
43681;BME280;29281;50.356;30.894;2023-03-18T01:06:47;101117.48;;;4.63;100.00
43681;BME280;29281;50.356;30.894;2023-03-18T01:07:51;101117.60;;;4.58;100.00
43681;BME280;29281;50.356;30.894;2023-03-18T01:08:58;101115.05;;;4.57;100.00
43681;BME280;29281;50.356;30.894;2023-03-18T01:10:04;101117.31;;;4.69;100.00
43681;BME280;29281;50.356;30.894;2023-03-18T01:11:09;101122.70;;;4.65;100.00
43681;BME280;29281;50.356;30.894;2023-03-18T01:12:12;101122.30;;;4.78;100.00
43681;BME280;29281;50.356;30.894;2023-03-18T01:13:16;101125.33;;;4.65;100.00
43681;BME280;29281;50.356;30.894;2023-03-18T01:14:19;101120.16;;;4.62;100.00
43681;BME280;29281;50.356;30.894;2023-03-18T01:15:22;101127.88;;;4.68;100.00
43681;BME280;29281;50.356;30.894;2023-03-18T01:16:26;101123.56;;;4.65;100.00
43681;BME280;29281;50.356;30.894;2023-03-18T01:17:33;101123.52;;;4.67;100.00
43681;BME280;29281;50.356;30.894;2023-03-18T01:18:38;101122.82;;;4.60;100.00
43681;BME280;29281;50.356;30.894;2023-03-18T01:19:41;101130.87;;;4.55;100.00
43681;BME280;29281;50.356;30.894;2023-03-18T01:20:46;101125.73;;;4.51;100.00
43681;BME280;29281;50.356;30.894;2023-03-18T01:21:51;101131.77;;;4.54;100.00
43681;BME280;29281;50.356;30.894;2023-03-18T01:22:54;101133.73;;;4.46;100.00
43681;BME280;29281;50.356;30.894;2023-03-18T01:24:00;101129.27;;;4.50;100.00
43681;BME280;29281;50.356;30.894;2023-03-18T01:25:03;101131.73;;;4.56;100.00
43681;BME280;29281;50.356;30.894;2023-03-18T01:26:09;101132.64;;;4.55;100.00
43681;BME280;29281;50.356;30.894;2023-03-18T01:27:14;101133.62;;;4.51;100.00
43681;BME280;29281;50.356;30.894;2023-03-18T01:28:19;101136.25;;;4.51;100.00
43681;BME280;29281;50.356;30.894;2023-03-18T01:29:23;101138.06;;;4.49;100.00
43681;BME280;29281;50.356;30.894;2023-03-18T01:30:27;101135.39;;;4.50;100.00
43681;BME280;29281;50.356;30.894;2023-03-18T01:31:31;101129.30;;;4.48;100.00
43681;BME280;29281;50.356;30.894;2023-03-18T01:32:37;101133.54;;;4.54;100.00
43681;BME280;29281;50.356;30.894;2023-03-18T01:33:40;101135.27;;;4.55;100.00
43681;BME280;29281;50.356;30.894;2023-03-18T01:34:44;101132.13;;;4.42;100.00
43681;BME280;29281;50.356;30.894;2023-03-18T01:35:51;101137.46;;;4.39;100.00
43681;BME280;29281;50.356;30.894;2023-03-18T01:36:53;101141.11;;;4.34;100.00
43681;BME280;29281;50.356;30.894;2023-03-18T01:37:57;101137.46;;;4.39;100.00
43681;BME280;29281;50.356;30.894;2023-03-18T01:39:19;101134.87;;;4.38;100.00
43681;BME280;29281;50.356;30.894;2023-03-18T01:40:25;101136.21;;;4.52;100.00
43681;BME280;29281;50.356;30.894;2023-03-18T01:41:31;101136.41;;;4.45;100.00
43681;BME280;29281;50.356;30.894;2023-03-18T01:42:36;101142.77;;;4.38;100.00
43681;BME280;29281;50.356;30.894;2023-03-18T01:43:44;101138.13;;;4.46;100.00
43681;BME280;29281;50.356;30.894;2023-03-18T01:44:48;101149.70;;;4.40;100.00
43681;BME280;29281;50.356;30.894;2023-03-18T01:45:57;101144.34;;;4.43;100.00
43681;BME280;29281;50.356;30.894;2023-03-18T01:46:58;101147.55;;;4.54;100.00
43681;BME280;29281;50.356;30.894;2023-03-18T01:48:04;101145.91;;;4.50;100.00
43681;BME280;29281;50.356;30.894;2023-03-18T01:49:08;101151.55;;;4.37;100.00
43681;BME280;29281;50.356;30.894;2023-03-18T01:50:14;101147.27;;;4.33;100.00
43681;BME280;29281;50.356;30.894;2023-03-18T01:51:19;101153.95;;;4.44;100.00
43681;BME280;29281;50.356;30.894;2023-03-18T01:52:24;101152.37;;;4.39;100.00
43681;BME280;29281;50.356;30.894;2023-03-18T01:53:30;101155.95;;;4.36;100.00
43681;BME280;29281;50.356;30.894;2023-03-18T01:54:36;101159.59;;;4.31;100.00
43681;BME280;29281;50.356;30.894;2023-03-18T01:55:39;101158.31;;;4.45;100.00
43681;BME280;29281;50.356;30.894;2023-03-18T01:56:42;101155.45;;;4.54;100.00
43681;BME280;29281;50.356;30.894;2023-03-18T01:57:49;101157.22;;;4.54;100.00
43681;BME280;29281;50.356;30.894;2023-03-18T01:58:55;101159.06;;;4.50;100.00
43681;BME280;29281;50.356;30.894;2023-03-18T01:59:59;101161.81;;;4.46;100.00
43681;BME280;29281;50.356;30.894;2023-03-18T02:01:13;101158.94;;;4.55;100.00
43681;BME280;29281;50.356;30.894;2023-03-18T02:02:21;101158.00;;;4.57;100.00
43681;BME280;29281;50.356;30.894;2023-03-18T02:03:28;101154.97;;;4.40;100.00
43681;BME280;29281;50.356;30.894;2023-03-18T02:04:38;101160.53;;;4.28;100.00
43681;BME280;29281;50.356;30.894;2023-03-18T02:05:38;101157.72;;;4.36;100.00
43681;BME280;29281;50.356;30.894;2023-03-18T02:06:42;101161.25;;;4.35;100.00
43681;BME280;29281;50.356;30.894;2023-03-18T02:07:46;101154.74;;;4.15;100.00
43681;BME280;29281;50.356;30.894;2023-03-18T02:08:49;101157.66;;;4.05;100.00
43681;BME280;29281;50.356;30.894;2023-03-18T02:09:53;101170.62;;;4.12;100.00
43681;BME280;29281;50.356;30.894;2023-03-18T02:11:01;101166.91;;;4.19;100.00
43681;BME280;29281;50.356;30.894;2023-03-18T02:12:08;101168.53;;;4.25;100.00
43681;BME280;29281;50.356;30.894;2023-03-18T02:13:14;101168.34;;;4.31;100.00
43681;BME280;29281;50.356;30.894;2023-03-18T02:14:18;101164.44;;;4.46;100.00
43681;BME280;29281;50.356;30.894;2023-03-18T02:15:27;101169.96;;;4.37;100.00
43681;BME280;29281;50.356;30.894;2023-03-18T02:16:33;101167.41;;;4.34;100.00
43681;BME280;29281;50.356;30.894;2023-03-18T02:17:39;101165.98;;;4.22;100.00
43681;BME280;29281;50.356;30.894;2023-03-18T02:18:49;101164.36;;;4.16;100.00
43681;BME280;29281;50.356;30.894;2023-03-18T02:19:53;101166.05;;;4.19;100.00
43681;BME280;29281;50.356;30.894;2023-03-18T02:22:16;101173.33;;;4.09;100.00
43681;BME280;29281;50.356;30.894;2023-03-18T02:23:24;101165.52;;;4.06;100.00
43681;BME280;29281;50.356;30.894;2023-03-18T02:24:32;101167.85;;;4.17;100.00
43681;BME280;29281;50.356;30.894;2023-03-18T02:27:00;101176.37;;;4.27;100.00
43681;BME280;29281;50.356;30.894;2023-03-18T02:28:07;101179.05;;;4.25;100.00
43681;BME280;29281;50.356;30.894;2023-03-18T02:29:13;101176.95;;;4.38;100.00
43681;BME280;29281;50.356;30.894;2023-03-18T02:30:21;101177.78;;;4.40;100.00
43681;BME280;29281;50.356;30.894;2023-03-18T02:31:27;101178.67;;;4.39;100.00
43681;BME280;29281;50.356;30.894;2023-03-18T02:32:31;101179.80;;;4.29;100.00
43681;BME280;29281;50.356;30.894;2023-03-18T02:33:37;101170.83;;;4.37;100.00
43681;BME280;29281;50.356;30.894;2023-03-18T02:34:43;101174.55;;;4.29;100.00
43681;BME280;29281;50.356;30.894;2023-03-18T02:35:49;101177.43;;;4.19;100.00
43681;BME280;29281;50.356;30.894;2023-03-18T02:36:53;101174.05;;;4.14;100.00
43681;BME280;29281;50.356;30.894;2023-03-18T02:37:56;101175.02;;;4.12;100.00
43681;BME280;29281;50.356;30.894;2023-03-18T02:39:00;101160.29;;;4.05;100.00
43681;BME280;29281;50.356;30.894;2023-03-18T02:40:16;101176.31;;;3.96;100.00
43681;BME280;29281;50.356;30.894;2023-03-18T02:41:22;101177.17;;;3.96;100.00
43681;BME280;29281;50.356;30.894;2023-03-18T02:42:31;101176.92;;;4.05;100.00
43681;BME280;29281;50.356;30.894;2023-03-18T02:43:35;101178.55;;;4.11;100.00
43681;BME280;29281;50.356;30.894;2023-03-18T02:44:42;101174.08;;;4.13;100.00
43681;BME280;29281;50.356;30.894;2023-03-18T02:46:56;101174.16;;;4.11;100.00
43681;BME280;29281;50.356;30.894;2023-03-18T02:48:01;101184.41;;;4.20;100.00
43681;BME280;29281;50.356;30.894;2023-03-18T02:49:08;101175.52;;;4.26;100.00
43681;BME280;29281;50.356;30.894;2023-03-18T02:50:12;101181.83;;;4.19;100.00
43681;BME280;29281;50.356;30.894;2023-03-18T02:51:16;101179.95;;;4.24;100.00
43681;BME280;29281;50.356;30.894;2023-03-18T02:52:20;101178.22;;;4.23;100.00
43681;BME280;29281;50.356;30.894;2023-03-18T02:53:23;101179.45;;;4.10;100.00
43681;BME280;29281;50.356;30.894;2023-03-18T02:54:28;101173.36;;;4.08;100.00
43681;BME280;29281;50.356;30.894;2023-03-18T02:55:32;101183.08;;;4.04;100.00
43681;BME280;29281;50.356;30.894;2023-03-18T02:56:37;101175.81;;;4.14;100.00
43681;BME280;29281;50.356;30.894;2023-03-18T02:57:41;101183.02;;;4.07;100.00
43681;BME280;29281;50.356;30.894;2023-03-18T02:58:44;101175.81;;;4.14;100.00
43681;BME280;29281;50.356;30.894;2023-03-18T02:59:48;101187.12;;;4.17;100.00
43681;BME280;29281;50.356;30.894;2023-03-18T03:00:50;101182.54;;;4.26;100.00
43681;BME280;29281;50.356;30.894;2023-03-18T03:01:54;101183.66;;;4.15;100.00
43681;BME280;29281;50.356;30.894;2023-03-18T03:02:58;101176.71;;;4.13;100.00
43681;BME280;29281;50.356;30.894;2023-03-18T03:04:02;101179.55;;;4.05;100.00
43681;BME280;29281;50.356;30.894;2023-03-18T03:05:06;101184.95;;;3.99;100.00
43681;BME280;29281;50.356;30.894;2023-03-18T03:06:10;101185.81;;;4.00;100.00
43681;BME280;29281;50.356;30.894;2023-03-18T03:07:14;101186.23;;;3.83;100.00
43681;BME280;29281;50.356;30.894;2023-03-18T03:08:22;101184.33;;;3.89;100.00
43681;BME280;29281;50.356;30.894;2023-03-18T03:09:29;101187.55;;;4.01;100.00
43681;BME280;29281;50.356;30.894;2023-03-18T03:10:34;101183.02;;;4.07;100.00
43681;BME280;29281;50.356;30.894;2023-03-18T03:11:38;101190.11;;;4.04;100.00
43681;BME280;29281;50.356;30.894;2023-03-18T03:12:43;101183.08;;;4.04;100.00
43681;BME280;29281;50.356;30.894;2023-03-18T03:13:46;101191.21;;;3.95;100.00
43681;BME280;29281;50.356;30.894;2023-03-18T03:14:49;101187.62;;;3.98;100.00
43681;BME280;29281;50.356;30.894;2023-03-18T03:15:54;101195.50;;;3.98;100.00
43681;BME280;29281;50.356;30.894;2023-03-18T03:16:57;101184.91;;;4.01;100.00
43681;BME280;29281;50.356;30.894;2023-03-18T03:18:00;101185.75;;;4.03;100.00
43681;BME280;29281;50.356;30.894;2023-03-18T03:19:04;101194.67;;;3.97;100.00
43681;BME280;29281;50.356;30.894;2023-03-18T03:20:08;101188.72;;;3.89;100.00
43681;BME280;29281;50.356;30.894;2023-03-18T03:21:12;101187.96;;;3.84;100.00
43681;BME280;29281;50.356;30.894;2023-03-18T03:22:17;101188.48;;;3.98;100.00
43681;BME280;29281;50.356;30.894;2023-03-18T03:23:21;101187.48;;;4.04;100.00
43681;BME280;29281;50.356;30.894;2023-03-18T03:24:24;101182.98;;;4.09;100.00
43681;BME280;29281;50.356;30.894;2023-03-18T03:25:27;101183.63;;;4.17;100.00
43681;BME280;29281;50.356;30.894;2023-03-18T03:26:31;101187.41;;;4.07;100.00
43681;BME280;29281;50.356;30.894;2023-03-18T03:27:35;101191.80;;;4.06;100.00
43681;BME280;29281;50.356;30.894;2023-03-18T03:28:41;101181.56;;;3.96;100.00
43681;BME280;29281;50.356;30.894;2023-03-18T03:29:44;101183.36;;;3.94;100.00
43681;BME280;29281;50.356;30.894;2023-03-18T03:30:48;101187.72;;;3.95;100.00
43681;BME280;29281;50.356;30.894;2023-03-18T03:31:51;101188.55;;;3.97;100.00
43681;BME280;29281;50.356;30.894;2023-03-18T03:32:54;101191.28;;;3.92;100.00
43681;BME280;29281;50.356;30.894;2023-03-18T03:33:58;101192.87;;;3.98;100.00
43681;BME280;29281;50.356;30.894;2023-03-18T03:35:09;101191.77;;;4.08;100.00
43681;BME280;29281;50.356;30.894;2023-03-18T03:36:15;101191.83;;;4.05;100.00
43681;BME280;29281;50.356;30.894;2023-03-18T03:37:22;101189.09;;;4.09;100.00
43681;BME280;29281;50.356;30.894;2023-03-18T03:38:27;101195.04;;;4.16;100.00
43681;BME280;29281;50.356;30.894;2023-03-18T03:39:31;101196.08;;;4.10;100.00
43681;BME280;29281;50.356;30.894;2023-03-18T03:40:37;101195.25;;;4.08;100.00
43681;BME280;29281;50.356;30.894;2023-03-18T03:41:40;101187.33;;;4.10;100.00
43681;BME280;29281;50.356;30.894;2023-03-18T03:42:43;101195.22;;;4.10;100.00
43681;BME280;29281;50.356;30.894;2023-03-18T03:43:47;101189.31;;;4.00;100.00
43681;BME280;29281;50.356;30.894;2023-03-18T03:44:50;101197.37;;;3.94;100.00
43681;BME280;29281;50.356;30.894;2023-03-18T03:45:54;101193.15;;;3.87;100.00
43681;BME280;29281;50.356;30.894;2023-03-18T03:46:57;101199.09;;;3.95;100.00
43681;BME280;29281;50.356;30.894;2023-03-18T03:48:01;101205.39;;;3.88;100.00
43681;BME280;29281;50.356;30.894;2023-03-18T03:49:04;101205.42;;;3.86;100.00
43681;BME280;29281;50.356;30.894;2023-03-18T03:50:08;101199.34;;;3.84;100.00
43681;BME280;29281;50.356;30.894;2023-03-18T03:51:12;101201.72;;;3.95;100.00
43681;BME280;29281;50.356;30.894;2023-03-18T03:52:20;101199.96;;;3.96;100.00
43681;BME280;29281;50.356;30.894;2023-03-18T03:53:23;101203.35;;;3.99;100.00
43681;BME280;29281;50.356;30.894;2023-03-18T03:54:28;101203.28;;;4.02;100.00
43681;BME280;29281;50.356;30.894;2023-03-18T03:55:32;101202.34;;;4.05;100.00
43681;BME280;29281;50.356;30.894;2023-03-18T03:56:35;101210.09;;;4.11;100.00
43681;BME280;29281;50.356;30.894;2023-03-18T03:57:38;101205.73;;;4.10;100.00
43681;BME280;29281;50.356;30.894;2023-03-18T03:58:42;101203.97;;;4.10;100.00
43681;BME280;29281;50.356;30.894;2023-03-18T03:59:47;101205.70;;;4.11;100.00
43681;BME280;29281;50.356;30.894;2023-03-18T04:00:54;101209.95;;;4.15;100.00
43681;BME280;29281;50.356;30.894;2023-03-18T04:01:58;101212.51;;;4.18;100.00
43681;BME280;29281;50.356;30.894;2023-03-18T04:03:03;101209.98;;;4.14;100.00
43681;BME280;29281;50.356;30.894;2023-03-18T04:04:05;101209.91;;;4.17;100.00
43681;BME280;29281;50.356;30.894;2023-03-18T04:05:11;101209.91;;;4.17;100.00
43681;BME280;29281;50.356;30.894;2023-03-18T04:06:14;101217.22;;;4.06;100.00
43681;BME280;29281;50.356;30.894;2023-03-18T04:07:19;101212.72;;;4.11;100.00
43681;BME280;29281;50.356;30.894;2023-03-18T04:08:23;101213.44;;;4.16;100.00
43681;BME280;29281;50.356;30.894;2023-03-18T04:09:26;101214.09;;;4.26;100.00
43681;BME280;29281;50.356;30.894;2023-03-18T04:10:30;101217.94;;;4.12;100.00
43681;BME280;29281;50.356;30.894;2023-03-18T04:11:34;101213.66;;;4.08;100.00
43681;BME280;29281;50.356;30.894;2023-03-18T04:12:39;101216.00;;;4.19;100.00
43681;BME280;29281;50.356;30.894;2023-03-18T04:13:44;101208.00;;;4.23;100.00
43681;BME280;29281;50.356;30.894;2023-03-18T04:14:48;101213.63;;;4.10;100.00
43681;BME280;29281;50.356;30.894;2023-03-18T04:15:53;101215.20;;;4.15;100.00
43681;BME280;29281;50.356;30.894;2023-03-18T04:16:56;101210.13;;;4.09;100.00
43681;BME280;29281;50.356;30.894;2023-03-18T04:18:02;101215.31;;;4.12;100.00
43681;BME280;29281;50.356;30.894;2023-03-18T04:19:08;101207.91;;;3.93;100.00
43681;BME280;29281;50.356;30.894;2023-03-18T04:20:15;101203.25;;;4.04;100.00
43681;BME280;29281;50.356;30.894;2023-03-18T04:21:19;101207.50;;;4.09;100.00
43681;BME280;29281;50.356;30.894;2023-03-18T04:22:25;101212.75;;;4.09;100.00
43681;BME280;29281;50.356;30.894;2023-03-18T04:23:31;101206.77;;;4.03;100.00
43681;BME280;29281;50.356;30.894;2023-03-18T04:24:36;101208.08;;;4.20;100.00
43681;BME280;29281;50.356;30.894;2023-03-18T04:25:38;101207.46;;;4.11;100.00
43681;BME280;29281;50.356;30.894;2023-03-18T04:26:41;101203.45;;;3.96;100.00
43681;BME280;29281;50.356;30.894;2023-03-18T04:27:45;101212.13;;;3.98;100.00
43681;BME280;29281;50.356;30.894;2023-03-18T04:28:50;101211.02;;;4.08;100.00
43681;BME280;29281;50.356;30.894;2023-03-18T04:29:55;101213.30;;;4.22;100.00
43681;BME280;29281;50.356;30.894;2023-03-18T04:31:00;101214.27;;;4.18;100.00
43681;BME280;29281;50.356;30.894;2023-03-18T04:32:04;101209.19;;;4.12;100.00
43681;BME280;29281;50.356;30.894;2023-03-18T04:33:08;101205.63;;;4.13;100.00
43681;BME280;29281;50.356;30.894;2023-03-18T04:34:14;101208.36;;;4.10;100.00
43681;BME280;29281;50.356;30.894;2023-03-18T04:35:18;101204.94;;;4.06;100.00
43681;BME280;29281;50.356;30.894;2023-03-18T04:36:24;101206.87;;;3.98;100.00
43681;BME280;29281;50.356;30.894;2023-03-18T04:37:28;101203.28;;;4.02;100.00
43681;BME280;29281;50.356;30.894;2023-03-18T04:38:34;101211.89;;;4.09;100.00
43681;BME280;29281;50.356;30.894;2023-03-18T04:39:39;101211.61;;;4.19;100.00
43681;BME280;29281;50.356;30.894;2023-03-18T04:40:44;101215.03;;;4.23;100.00
43681;BME280;29281;50.356;30.894;2023-03-18T04:41:47;101206.56;;;4.12;100.00
43681;BME280;29281;50.356;30.894;2023-03-18T04:42:51;101210.16;;;4.08;100.00
43681;BME280;29281;50.356;30.894;2023-03-18T04:43:56;101209.77;;;4.23;100.00
43681;BME280;29281;50.356;30.894;2023-03-18T04:45:02;101213.37;;;4.19;100.00
43681;BME280;29281;50.356;30.894;2023-03-18T04:46:08;101208.04;;;4.22;100.00
43681;BME280;29281;50.356;30.894;2023-03-18T04:47:17;101212.11;;;4.34;100.00
43681;BME280;29281;50.356;30.894;2023-03-18T04:48:20;101217.63;;;4.24;100.00
43681;BME280;29281;50.356;30.894;2023-03-18T04:49:25;101212.15;;;4.32;100.00
43681;BME280;29281;50.356;30.894;2023-03-18T04:50:28;101214.70;;;4.35;100.00
43681;BME280;29281;50.356;30.894;2023-03-18T04:51:32;101217.37;;;4.34;100.00
43681;BME280;29281;50.356;30.894;2023-03-18T04:52:38;101218.59;;;4.20;100.00
43681;BME280;29281;50.356;30.894;2023-03-18T04:53:43;101213.19;;;4.27;100.00
43681;BME280;29281;50.356;30.894;2023-03-18T04:54:48;101212.72;;;4.43;100.00
43681;BME280;29281;50.356;30.894;2023-03-18T04:55:52;101210.09;;;4.43;100.00
43681;BME280;29281;50.356;30.894;2023-03-18T04:56:58;101220.94;;;4.31;100.00
43681;BME280;29281;50.356;30.894;2023-03-18T04:58:03;101208.47;;;4.39;100.00
43681;BME280;29281;50.356;30.894;2023-03-18T04:59:09;101206.48;;;4.47;100.00
43681;BME280;29281;50.356;30.894;2023-03-18T05:00:14;101210.02;;;4.46;100.00
43681;BME280;29281;50.356;30.894;2023-03-18T05:01:21;101215.56;;;4.36;100.00
43681;BME280;29281;50.356;30.894;2023-03-18T05:02:26;101210.84;;;4.48;100.00
43681;BME280;29281;50.356;30.894;2023-03-18T05:03:31;101211.37;;;4.61;100.00
43681;BME280;29281;50.356;30.894;2023-03-18T05:04:33;101210.66;;;4.56;100.00
43681;BME280;29281;50.356;30.894;2023-03-18T05:05:38;101205.66;;;4.45;100.00
43681;BME280;29281;50.356;30.894;2023-03-18T05:06:48;101212.68;;;4.45;100.00
43681;BME280;29281;50.356;30.894;2023-03-18T05:07:54;101212.53;;;4.51;100.00
43681;BME280;29281;50.356;30.894;2023-03-18T05:08:58;101209.34;;;4.40;100.00
43681;BME280;29281;50.356;30.894;2023-03-18T05:10:05;101215.23;;;4.48;100.00
43681;BME280;29281;50.356;30.894;2023-03-18T05:11:07;101222.75;;;4.62;100.00
43681;BME280;29281;50.356;30.894;2023-03-18T05:12:15;101217.49;;;4.62;100.00
43681;BME280;29281;50.356;30.894;2023-03-18T05:13:20;101211.37;;;4.61;100.00
43681;BME280;29281;50.356;30.894;2023-03-18T05:14:25;101215.57;;;4.68;100.00
43681;BME280;29281;50.356;30.894;2023-03-18T05:15:29;101217.83;;;4.49;100.00
43681;BME280;29281;50.356;30.894;2023-03-18T05:16:33;101215.80;;;4.59;100.00
43681;BME280;29281;50.356;30.894;2023-03-18T05:17:37;101214.78;;;4.65;100.00
43681;BME280;29281;50.356;30.894;2023-03-18T05:18:42;101212.42;;;4.55;100.00
43681;BME280;29281;50.356;30.894;2023-03-18T05:19:48;101214.34;;;4.49;100.00
43681;BME280;29281;50.356;30.894;2023-03-18T05:20:54;101218.51;;;4.57;100.00
43681;BME280;29281;50.356;30.894;2023-03-18T05:21:58;101225.34;;;4.63;100.00
43681;BME280;29281;50.356;30.894;2023-03-18T05:23:03;101220.31;;;4.55;100.00
43681;BME280;29281;50.356;30.894;2023-03-18T05:24:12;101223.84;;;4.54;100.00
43681;BME280;29281;50.356;30.894;2023-03-18T05:25:17;101225.83;;;4.45;100.00
43681;BME280;29281;50.356;30.894;2023-03-18T05:26:22;101227.30;;;4.56;100.00
43681;BME280;29281;50.356;30.894;2023-03-18T05:27:28;101227.38;;;4.53;100.00
43681;BME280;29281;50.356;30.894;2023-03-18T05:28:35;101228.95;;;4.59;100.00
43681;BME280;29281;50.356;30.894;2023-03-18T05:29:40;101240.27;;;4.63;100.00
43681;BME280;29281;50.356;30.894;2023-03-18T05:30:53;101242.05;;;4.28;100.00
43681;BME280;29281;50.356;30.894;2023-03-18T05:31:58;101235.81;;;4.32;100.00
43681;BME280;29281;50.356;30.894;2023-03-18T05:33:02;101232.82;;;4.46;100.00
43681;BME280;29281;50.356;30.894;2023-03-18T05:34:10;101233.50;;;4.54;100.00
43681;BME280;29281;50.356;30.894;2023-03-18T05:35:16;101236.77;;;4.62;100.00
43681;BME280;29281;50.356;30.894;2023-03-18T05:36:22;101238.98;;;4.77;100.00
43681;BME280;29281;50.356;30.894;2023-03-18T05:37:27;101230.15;;;4.80;100.00
43681;BME280;29281;50.356;30.894;2023-03-18T05:38:32;101235.53;;;4.75;100.00
43681;BME280;29281;50.356;30.894;2023-03-18T05:39:37;101236.28;;;4.80;100.00